METAR Data
IDs: Format: Raw Decoded Include TAF

Data at: 2118 UTC 22 Sep 2020

KRZN 222115Z AUTO 19003KT 10SM CLR 28/09 A3002 RMK AO2 T02760091
KRZN 222055Z AUTO 16004KT 10SM CLR 28/10 A3003 RMK AO2 T02750097
KRZN 222035Z AUTO 18003KT 10SM CLR 28/10 A3003 RMK AO2 T02780097
KRZN 222015Z AUTO 18004KT 10SM CLR 28/10 A3004 RMK AO2 T02770102
KRZN 221955Z AUTO 10003KT 10SM CLR 28/12 A3004 RMK AO2 T02750115
KRZN 221935Z AUTO 00000KT 10SM CLR 27/11 A3005 RMK AO2 T02730105
KRZN 221915Z AUTO 00000KT 10SM CLR 27/12 A3006 RMK AO2 T02700118
KRZN 221855Z AUTO 00000KT 10SM CLR 26/13 A3007 RMK AO2 T02640131
KRZN 221835Z AUTO 00000KT 10SM CLR 26/14 A3008 RMK AO2 T02610135
KRZN 221815Z AUTO 21004KT 10SM CLR 26/14 A3008 RMK AO2 T02560136
KRZN 221755Z AUTO 09003KT 10SM CLR 25/14 A3009 RMK AO2 T02510142 10251 20075
KRZN 221735Z AUTO 00000KT 10SM CLR 25/14 A3010 RMK AO2 T02500141
KRZN 221715Z AUTO 00000KT 10SM CLR 24/15 A3010 RMK AO2 T02410146
KRZN 221655Z AUTO 00000KT 10SM CLR 23/14 A3010 RMK AO2 T02340138
KRZN 221635Z AUTO 00000KT 10SM CLR 23/14 A3010 RMK AO2 T02290139
KRZN 221615Z AUTO 00000KT 10SM CLR 22/14 A3011 RMK AO2 T02200137
KRZN 221555Z AUTO 00000KT 10SM CLR 21/14 A3012 RMK AO2 T02130139
KRZN 221535Z AUTO 00000KT 10SM CLR 21/14 A3012 RMK AO2 T02060138
KRZN 221515Z AUTO 00000KT 10SM CLR 19/14 A3012 RMK AO2 T01940137
KRZN 221455Z AUTO 00000KT 10SM CLR 19/14 A3012 RMK AO2 T01850136
KRZN 221435Z AUTO 00000KT 10SM CLR 18/14 A3012 RMK AO2 T01750135
KRZN 221415Z AUTO 00000KT 10SM CLR 16/13 A3012 RMK AO2 T01620132
KRZN 221355Z AUTO 00000KT 10SM CLR 15/13 A3012 RMK AO2 T01480129
KRZN 221335Z AUTO 00000KT 10SM CLR 13/12 A3012 RMK AO2 T01300119
KRZN 221315Z AUTO 00000KT 10SM CLR 10/09 A3012 RMK AO2 T01040094
KRZN 221255Z AUTO 00000KT 10SM CLR 09/08 A3012 RMK AO2 T00870079
KRZN 221235Z AUTO 00000KT 10SM CLR 08/07 A3012 RMK AO2 T00770070
KRZN 221215Z AUTO 00000KT 10SM CLR 08/07 A3011 RMK AO2 T00780066
KRZN 221155Z AUTO 17003KT 10SM CLR 08/08 A3011 RMK AO2 T00830076 10119 20074
KRZN 221135Z AUTO 00000KT 5SM BR CLR 08/07 A3011 RMK AO2 T00760066
KRZN 221115Z AUTO 00000KT 7SM CLR 08/07 A3011 RMK AO2 T00800071
KRZN 221055Z AUTO 00000KT 10SM CLR 08/07 A3010 RMK AO2 T00810073
KRZN 221035Z AUTO 00000KT 10SM CLR 09/08 A3010 RMK AO2 T00890082
KRZN 221015Z AUTO 00000KT 10SM CLR 09/08 A3010 RMK AO2 T00900080
KRZN 220955Z AUTO 00000KT 10SM CLR 09/09 A3009 RMK AO2 T00920085
KRZN 220935Z AUTO 00000KT 10SM CLR 09/09 A3009 RMK AO2 T00920085
KRZN 220915Z AUTO 00000KT 10SM CLR 10/09 A3009 RMK AO2 T00950085
KRZN 220855Z AUTO 00000KT 10SM CLR 10/09 A3009 RMK AO2 T00980089
KRZN 220835Z AUTO 00000KT 10SM CLR 10/09 A3009 RMK AO2 T00990089
KRZN 220815Z AUTO 00000KT 10SM CLR 10/09 A3009 RMK AO2 T01020094
KRZN 220755Z AUTO 00000KT 10SM CLR 11/10 A3009 RMK AO2 T01060098
KRZN 220735Z AUTO 00000KT 10SM CLR 12/11 A3009 RMK AO2 T01150106
KRZN 220715Z AUTO 00000KT 10SM CLR 11/10 A3009 RMK AO2 T01070095
KRZN 220655Z AUTO 00000KT 10SM CLR 11/10 A3009 RMK AO2 T01080101
KRZN 220635Z AUTO 16003KT 10SM CLR 11/10 A3009 RMK AO2 T01060095
KRZN 220615Z AUTO 00000KT 10SM CLR 11/10 A3009 RMK AO2 T01090098
KRZN 220555Z AUTO 00000KT 10SM CLR 12/11 A3009 RMK AO2 T01180110 10196 20110 402360110
KRZN 220535Z AUTO 00000KT 10SM CLR 11/10 A3009 RMK AO2 T01110098
KRZN 220515Z AUTO 00000KT 10SM CLR 11/10 A3009 RMK AO2 T01140104
KRZN 220455Z AUTO 00000KT 10SM CLR 12/11 A3009 RMK AO2 T01170106
KRZN 220435Z AUTO 00000KT 10SM CLR 12/11 A3008 RMK AO2 T01180105
KRZN 220415Z AUTO 00000KT 10SM CLR 12/11 A3009 RMK AO2 T01230108
KRZN 220355Z AUTO 00000KT 10SM CLR 13/11 A3008 RMK AO2 T01250113
KRZN 220335Z AUTO 00000KT 10SM CLR 13/12 A3008 RMK AO2 T01310116
KRZN 220315Z AUTO 00000KT 10SM CLR 13/12 A3008 RMK AO2 T01340119
KRZN 220255Z AUTO 00000KT 10SM CLR 14/12 A3008 RMK AO2 T01410123
KRZN 220235Z AUTO 00000KT 10SM CLR 15/12 A3008 RMK AO2 T01480121
KRZN 220215Z AUTO 19004KT 10SM CLR 16/13 A3007 RMK AO2 T01560130
KRZN 220155Z AUTO 18004KT 10SM CLR 16/13 A3007 RMK AO2 T01610131
KRZN 220135Z AUTO 18005KT 10SM CLR 17/14 A3007 RMK AO2 T01700135
KRZN 220115Z AUTO 17006KT 10SM CLR 17/14 A3007 RMK AO2 T01710135
KRZN 220055Z AUTO 18004KT 10SM CLR 17/14 A3008 RMK AO2 T01690136
KRZN 220035Z AUTO 17004KT 10SM CLR 18/14 A3007 RMK AO2 T01760137
KRZN 220015Z AUTO 00000KT 10SM CLR 19/14 A3007 RMK AO2 T01850137
KRZN 212355Z AUTO 19003KT 10SM CLR 20/13 A3007 RMK AO2 T01970134 10236 20197
KRZN 212335Z AUTO 20004KT 10SM CLR 21/13 A3007 RMK AO2 T02050132
KRZN 212315Z AUTO 21006KT 10SM CLR 21/13 A3007 RMK AO2 T02130129
KRZN 212255Z AUTO 21006KT 10SM SCT110 22/13 A3006 RMK AO2 T02190125
KRZN 212235Z AUTO 22005KT 10SM BKN110 22/12 A3006 RMK AO2 T02190124
KRZN 212215Z AUTO 20007KT 10SM SCT100 22/12 A3005 RMK AO2 T02220121
KRZN 212155Z AUTO 22010G17KT 10SM SCT100 23/12 A3005 RMK AO2 T02300118
KRZN 212135Z AUTO 22007G15KT 10SM BKN100 BKN120 23/12 A3006 RMK AO2 T02280120
KRZN 212115Z AUTO 22006KT 10SM BKN100 22/12 A3006 RMK AO2 T02230120
KRZN 212055Z AUTO 23008KT 10SM BKN100 23/12 A3007 RMK AO2 T02280117
KRZN 212035Z AUTO 22008KT 10SM BKN100 23/12 A3007 RMK AO2 T02260115
KRZN 212015Z AUTO 22008KT 10SM SCT090 23/12 A3007 RMK AO2 T02280116
KRZN 211955Z AUTO 23007G14KT 10SM SCT090 24/12 A3007 RMK AO2 T02360115
KRZN 211935Z AUTO 22008KT 10SM SCT090 23/11 A3007 RMK AO2 T02250111
KRZN 211915Z AUTO 22009G17KT 10SM CLR 24/11 A3008 RMK AO2 T02350112
KRZN 211855Z AUTO 22010KT 10SM CLR 23/11 A3008 RMK AO2 T02320110
KRZN 211835Z AUTO 21010KT 10SM CLR 23/11 A3009 RMK AO2 T02290111
KRZN 211815Z AUTO 20007G14KT 10SM CLR 23/11 A3009 RMK AO2 T02270111
KRZN 211755Z AUTO 23009KT 10SM CLR 22/11 A3010 RMK AO2 T02230109 10225 20145
KRZN 211735Z AUTO 21010G16KT 10SM CLR 22/11 A3010 RMK AO2 T02200107
KRZN 211715Z AUTO 23011G15KT 10SM CLR 22/11 A3011 RMK AO2 T02180108
KRZN 211655Z AUTO 22009G16KT 190V250 10SM CLR 21/11 A3011 RMK AO2 T02140106
KRZN 211635Z AUTO 22008G15KT 10SM CLR 21/11 A3011 RMK AO2 T02100106
KRZN 211615Z AUTO 20012KT 10SM CLR 21/10 A3012 RMK AO2 T02050103
KRZN 211555Z AUTO 19010G15KT 10SM CLR 20/10 A3012 RMK AO2 T02010103
KRZN 211535Z AUTO 21009G17KT 10SM CLR 19/10 A3013 RMK AO2 T01920097
KRZN 211515Z AUTO 21009G17KT 10SM CLR 19/10 A3013 RMK AO2 T01870095
KRZN 211455Z AUTO 20011G16KT 10SM CLR 18/09 A3013 RMK AO2 T01820092
KRZN 211435Z AUTO 20011KT 10SM CLR 18/09 A3013 RMK AO2 T01760088
KRZN 211415Z AUTO 20009KT 10SM CLR 17/09 A3013 RMK AO2 T01720086
KRZN 211355Z AUTO 20010G16KT 10SM CLR 17/08 A3013 RMK AO2 T01680082
KRZN 211335Z AUTO 21008G14KT 10SM CLR 16/08 A3014 RMK AO2 T01620080
KRZN 211315Z AUTO 20009G14KT 10SM CLR 16/08 A3014 RMK AO2 T01560076
KRZN 211255Z AUTO 20007G15KT 10SM CLR 15/07 A3014 RMK AO2 T01500071
KRZN 211235Z AUTO 19009KT 10SM CLR 15/07 A3013 RMK AO2 T01470069
KRZN 211215Z AUTO 19008KT 10SM CLR 15/07 A3013 RMK AO2 T01450067
KRZN 211155Z AUTO 19007KT 10SM CLR 15/07 A3013 RMK AO2 T01450065 10165 20145
KRZN 211135Z AUTO 19008G15KT 10SM CLR 15/07 A3013 RMK AO2 T01470065
KRZN 211115Z AUTO 20009G14KT 10SM CLR 15/07 A3013 RMK AO2 T01500065
KRZN 211055Z AUTO 19011KT 10SM CLR 15/06 A3013 RMK AO2 T01480063
KRZN 211035Z AUTO 19010G17KT 10SM CLR 15/06 A3012 RMK AO2 T01500062
KRZN 211015Z AUTO 19007KT 10SM CLR 15/06 A3012 RMK AO2 T01470061
KRZN 210955Z AUTO 18010G14KT 10SM CLR 15/06 A3013 RMK AO2 T01480060
KRZN 210935Z AUTO 17010G15KT 10SM CLR 15/06 A3013 RMK AO2 T01490060